sensor_id;sensor_type;location;lat;lon;timestamp;P1;durP1;ratioP1;P2;durP2;ratioP2
12577;SDS011;6354;51.026;8.968;2023-03-20T00:00:29;612.20;;;123.77;;
12577;SDS011;6354;51.026;8.968;2023-03-20T00:03:00;1075.03;;;196.03;;
12577;SDS011;6354;51.026;8.968;2023-03-20T00:05:29;617.73;;;103.23;;
12577;SDS011;6354;51.026;8.968;2023-03-20T00:07:58;415.77;;;76.83;;
12577;SDS011;6354;51.026;8.968;2023-03-20T00:10:29;1303.37;;;254.27;;
12577;SDS011;6354;51.026;8.968;2023-03-20T00:13:00;168.77;;;28.90;;
12577;SDS011;6354;51.026;8.968;2023-03-20T00:15:29;621.90;;;103.90;;
12577;SDS011;6354;51.026;8.968;2023-03-20T00:18:01;92.00;;;26.80;;
12577;SDS011;6354;51.026;8.968;2023-03-20T00:20:29;716.20;;;164.60;;
12577;SDS011;6354;51.026;8.968;2023-03-20T00:22:57;182.40;;;53.53;;
12577;SDS011;6354;51.026;8.968;2023-03-20T00:25:24;59.50;;;19.27;;
12577;SDS011;6354;51.026;8.968;2023-03-20T00:27:53;190.77;;;36.07;;
12577;SDS011;6354;51.026;8.968;2023-03-20T00:30:23;603.37;;;94.93;;
12577;SDS011;6354;51.026;8.968;2023-03-20T00:32:54;171.90;;;25.87;;
12577;SDS011;6354;51.026;8.968;2023-03-20T00:35:26;451.43;;;65.47;;
12577;SDS011;6354;51.026;8.968;2023-03-20T00:37:56;275.17;;;64.70;;
12577;SDS011;6354;51.026;8.968;2023-03-20T00:40:26;77.23;;;22.90;;
12577;SDS011;6354;51.026;8.968;2023-03-20T00:42:57;1733.77;;;353.83;;
12577;SDS011;6354;51.026;8.968;2023-03-20T00:45:27;1100.73;;;189.03;;
12577;SDS011;6354;51.026;8.968;2023-03-20T00:47:56;1500.03;;;290.90;;
12577;SDS011;6354;51.026;8.968;2023-03-20T00:50:27;126.40;;;29.03;;
12577;SDS011;6354;51.026;8.968;2023-03-20T00:52:57;403.37;;;71.03;;
12577;SDS011;6354;51.026;8.968;2023-03-20T00:55:26;1150.77;;;222.50;;
12577;SDS011;6354;51.026;8.968;2023-03-20T00:57:56;307.87;;;59.33;;
12577;SDS011;6354;51.026;8.968;2023-03-20T01:00:34;345.20;;;79.83;;
12577;SDS011;6354;51.026;8.968;2023-03-20T01:03:09;394.10;;;105.27;;
12577;SDS011;6354;51.026;8.968;2023-03-20T01:05:41;517.17;;;84.70;;
12577;SDS011;6354;51.026;8.968;2023-03-20T01:08:13;19.63;;;11.13;;
12577;SDS011;6354;51.026;8.968;2023-03-20T01:10:43;687.70;;;143.43;;
12577;SDS011;6354;51.026;8.968;2023-03-20T01:13:16;686.97;;;114.87;;
12577;SDS011;6354;51.026;8.968;2023-03-20T01:15:46;401.73;;;76.47;;
12577;SDS011;6354;51.026;8.968;2023-03-20T01:18:17;726.17;;;131.13;;
12577;SDS011;6354;51.026;8.968;2023-03-20T01:20:48;891.13;;;191.70;;
12577;SDS011;6354;51.026;8.968;2023-03-20T01:23:18;574.93;;;111.10;;
12577;SDS011;6354;51.026;8.968;2023-03-20T01:25:48;1502.37;;;273.53;;
12577;SDS011;6354;51.026;8.968;2023-03-20T01:28:17;143.27;;;36.80;;
12577;SDS011;6354;51.026;8.968;2023-03-20T01:30:48;809.67;;;170.00;;
12577;SDS011;6354;51.026;8.968;2023-03-20T01:33:17;1172.63;;;219.93;;
12577;SDS011;6354;51.026;8.968;2023-03-20T01:35:48;159.97;;;33.80;;
12577;SDS011;6354;51.026;8.968;2023-03-20T01:38:17;64.10;;;18.20;;
12577;SDS011;6354;51.026;8.968;2023-03-20T01:40:48;250.77;;;57.40;;
12577;SDS011;6354;51.026;8.968;2023-03-20T01:43:20;14.43;;;10.13;;
12577;SDS011;6354;51.026;8.968;2023-03-20T01:45:53;344.17;;;61.83;;
12577;SDS011;6354;51.026;8.968;2023-03-20T01:48:26;323.83;;;59.53;;
12577;SDS011;6354;51.026;8.968;2023-03-20T01:51:04;112.83;;;34.27;;
12577;SDS011;6354;51.026;8.968;2023-03-20T01:53:32;194.83;;;51.57;;
12577;SDS011;6354;51.026;8.968;2023-03-20T01:56:00;45.87;;;19.33;;
12577;SDS011;6354;51.026;8.968;2023-03-20T01:58:30;364.13;;;69.43;;
12577;SDS011;6354;51.026;8.968;2023-03-20T02:01:02;869.37;;;169.43;;
12577;SDS011;6354;51.026;8.968;2023-03-20T02:03:32;555.47;;;92.50;;
12577;SDS011;6354;51.026;8.968;2023-03-20T02:06:00;1555.43;;;258.43;;
12577;SDS011;6354;51.026;8.968;2023-03-20T02:08:30;344.03;;;83.90;;
12577;SDS011;6354;51.026;8.968;2023-03-20T02:11:03;449.13;;;95.17;;
12577;SDS011;6354;51.026;8.968;2023-03-20T02:13:32;437.57;;;95.37;;
12577;SDS011;6354;51.026;8.968;2023-03-20T02:16:02;1227.50;;;262.27;;
12577;SDS011;6354;51.026;8.968;2023-03-20T02:18:33;415.90;;;72.90;;
12577;SDS011;6354;51.026;8.968;2023-03-20T02:21:18;795.63;;;129.70;;
12577;SDS011;6354;51.026;8.968;2023-03-20T02:27:22;428.73;;;86.57;;
12577;SDS011;6354;51.026;8.968;2023-03-20T02:36:21;376.50;;;88.27;;
12577;SDS011;6354;51.026;8.968;2023-03-20T02:42:02;53.30;;;23.77;;
12577;SDS011;6354;51.026;8.968;2023-03-20T02:44:39;523.90;;;120.53;;
12577;SDS011;6354;51.026;8.968;2023-03-20T02:47:13;812.43;;;145.87;;
12577;SDS011;6354;51.026;8.968;2023-03-20T02:49:51;1519.07;;;298.87;;
12577;SDS011;6354;51.026;8.968;2023-03-20T02:52:25;1733.13;;;304.80;;
12577;SDS011;6354;51.026;8.968;2023-03-20T02:55:04;615.90;;;122.40;;
12577;SDS011;6354;51.026;8.968;2023-03-20T02:57:46;153.90;;;38.30;;
12577;SDS011;6354;51.026;8.968;2023-03-20T03:00:25;61.43;;;34.43;;
12577;SDS011;6354;51.026;8.968;2023-03-20T03:02:57;135.27;;;39.53;;
12577;SDS011;6354;51.026;8.968;2023-03-20T03:05:33;321.80;;;85.17;;
12577;SDS011;6354;51.026;8.968;2023-03-20T03:08:04;690.03;;;146.63;;
12577;SDS011;6354;51.026;8.968;2023-03-20T03:10:38;497.17;;;113.10;;
12577;SDS011;6354;51.026;8.968;2023-03-20T03:13:10;858.67;;;180.83;;
12577;SDS011;6354;51.026;8.968;2023-03-20T03:15:41;1612.90;;;266.17;;
12577;SDS011;6354;51.026;8.968;2023-03-20T03:18:14;328.90;;;56.10;;
12577;SDS011;6354;51.026;8.968;2023-03-20T03:20:46;425.23;;;84.40;;
12577;SDS011;6354;51.026;8.968;2023-03-20T03:23:20;81.53;;;22.60;;
12577;SDS011;6354;51.026;8.968;2023-03-20T03:25:54;278.73;;;56.30;;
12577;SDS011;6354;51.026;8.968;2023-03-20T03:28:25;879.37;;;161.93;;
12577;SDS011;6354;51.026;8.968;2023-03-20T03:31:02;168.23;;;44.33;;
12577;SDS011;6354;51.026;8.968;2023-03-20T03:33:33;339.50;;;75.57;;
12577;SDS011;6354;51.026;8.968;2023-03-20T03:36:06;668.80;;;122.77;;
12577;SDS011;6354;51.026;8.968;2023-03-20T03:38:41;869.67;;;170.17;;
12577;SDS011;6354;51.026;8.968;2023-03-20T03:41:21;72.70;;;26.63;;
12577;SDS011;6354;51.026;8.968;2023-03-20T03:43:55;345.87;;;95.23;;
12577;SDS011;6354;51.026;8.968;2023-03-20T03:46:33;565.40;;;133.87;;
12577;SDS011;6354;51.026;8.968;2023-03-20T03:49:11;218.03;;;46.80;;
12577;SDS011;6354;51.026;8.968;2023-03-20T03:51:43;82.97;;;26.47;;
12577;SDS011;6354;51.026;8.968;2023-03-20T03:54:15;806.47;;;132.63;;
12577;SDS011;6354;51.026;8.968;2023-03-20T03:56:48;1007.07;;;191.87;;
12577;SDS011;6354;51.026;8.968;2023-03-20T03:59:19;379.40;;;96.03;;
12577;SDS011;6354;51.026;8.968;2023-03-20T04:01:51;187.00;;;22.33;;
12577;SDS011;6354;51.026;8.968;2023-03-20T04:04:20;777.50;;;152.60;;
12577;SDS011;6354;51.026;8.968;2023-03-20T04:06:50;565.33;;;83.97;;
12577;SDS011;6354;51.026;8.968;2023-03-20T04:09:18;532.77;;;94.73;;
12577;SDS011;6354;51.026;8.968;2023-03-20T04:11:47;371.83;;;102.13;;
12577;SDS011;6354;51.026;8.968;2023-03-20T04:14:18;328.50;;;80.50;;
12577;SDS011;6354;51.026;8.968;2023-03-20T04:16:47;586.13;;;105.73;;
12577;SDS011;6354;51.026;8.968;2023-03-20T04:19:15;214.33;;;50.17;;
12577;SDS011;6354;51.026;8.968;2023-03-20T04:21:43;452.30;;;81.43;;
12577;SDS011;6354;51.026;8.968;2023-03-20T04:24:11;48.40;;;24.00;;
12577;SDS011;6354;51.026;8.968;2023-03-20T04:26:40;40.63;;;18.17;;
12577;SDS011;6354;51.026;8.968;2023-03-20T04:29:10;764.90;;;158.10;;
12577;SDS011;6354;51.026;8.968;2023-03-20T04:31:38;31.67;;;13.83;;
12577;SDS011;6354;51.026;8.968;2023-03-20T04:34:06;78.30;;;32.13;;
12577;SDS011;6354;51.026;8.968;2023-03-20T04:36:34;900.43;;;171.00;;
12577;SDS011;6354;51.026;8.968;2023-03-20T04:39:02;1105.70;;;171.27;;
12577;SDS011;6354;51.026;8.968;2023-03-20T04:41:30;410.10;;;71.33;;
12577;SDS011;6354;51.026;8.968;2023-03-20T04:43:58;47.57;;;21.87;;
12577;SDS011;6354;51.026;8.968;2023-03-20T04:46:27;243.57;;;51.90;;
12577;SDS011;6354;51.026;8.968;2023-03-20T04:48:55;945.73;;;175.47;;
12577;SDS011;6354;51.026;8.968;2023-03-20T04:51:23;1710.17;;;733.40;;
12577;SDS011;6354;51.026;8.968;2023-03-20T04:53:51;358.13;;;93.10;;
12577;SDS011;6354;51.026;8.968;2023-03-20T04:56:19;521.57;;;106.80;;
12577;SDS011;6354;51.026;8.968;2023-03-20T04:58:47;103.60;;;25.07;;
12577;SDS011;6354;51.026;8.968;2023-03-20T05:01:15;1146.03;;;212.37;;
12577;SDS011;6354;51.026;8.968;2023-03-20T05:03:45;259.33;;;50.23;;
12577;SDS011;6354;51.026;8.968;2023-03-20T05:06:13;1157.43;;;194.77;;
12577;SDS011;6354;51.026;8.968;2023-03-20T05:08:41;1127.90;;;223.57;;
12577;SDS011;6354;51.026;8.968;2023-03-20T05:11:09;295.03;;;60.47;;
12577;SDS011;6354;51.026;8.968;2023-03-20T05:13:37;412.17;;;58.37;;
12577;SDS011;6354;51.026;8.968;2023-03-20T05:16:05;857.87;;;121.60;;
12577;SDS011;6354;51.026;8.968;2023-03-20T05:18:34;607.03;;;99.83;;
12577;SDS011;6354;51.026;8.968;2023-03-20T05:21:04;452.97;;;77.80;;
12577;SDS011;6354;51.026;8.968;2023-03-20T05:23:33;371.87;;;70.57;;
12577;SDS011;6354;51.026;8.968;2023-03-20T05:26:01;658.87;;;112.97;;
12577;SDS011;6354;51.026;8.968;2023-03-20T05:28:29;648.20;;;100.30;;
12577;SDS011;6354;51.026;8.968;2023-03-20T05:30:57;1515.70;;;266.73;;
12577;SDS011;6354;51.026;8.968;2023-03-20T05:33:25;111.70;;;29.13;;
12577;SDS011;6354;51.026;8.968;2023-03-20T05:35:53;810.53;;;117.10;;
12577;SDS011;6354;51.026;8.968;2023-03-20T05:38:23;858.77;;;138.10;;
12577;SDS011;6354;51.026;8.968;2023-03-20T05:40:54;461.73;;;92.87;;
12577;SDS011;6354;51.026;8.968;2023-03-20T05:43:23;383.87;;;78.77;;
12577;SDS011;6354;51.026;8.968;2023-03-20T05:45:52;153.93;;;53.10;;
12577;SDS011;6354;51.026;8.968;2023-03-20T05:48:21;667.60;;;92.07;;
12577;SDS011;6354;51.026;8.968;2023-03-20T05:50:49;691.77;;;112.83;;
12577;SDS011;6354;51.026;8.968;2023-03-20T05:53:17;393.80;;;68.40;;
12577;SDS011;6354;51.026;8.968;2023-03-20T05:55:46;735.77;;;113.67;;
12577;SDS011;6354;51.026;8.968;2023-03-20T05:58:14;333.90;;;70.97;;
12577;SDS011;6354;51.026;8.968;2023-03-20T06:00:42;582.00;;;96.23;;
12577;SDS011;6354;51.026;8.968;2023-03-20T06:03:10;365.17;;;72.70;;
12577;SDS011;6354;51.026;8.968;2023-03-20T06:05:38;616.80;;;121.83;;
12577;SDS011;6354;51.026;8.968;2023-03-20T06:08:07;295.60;;;72.30;;
12577;SDS011;6354;51.026;8.968;2023-03-20T06:10:35;949.63;;;142.50;;
12577;SDS011;6354;51.026;8.968;2023-03-20T06:13:04;499.00;;;82.03;;
12577;SDS011;6354;51.026;8.968;2023-03-20T06:15:32;1623.17;;;236.93;;
12577;SDS011;6354;51.026;8.968;2023-03-20T06:18:01;574.87;;;114.07;;
12577;SDS011;6354;51.026;8.968;2023-03-20T06:20:29;740.73;;;121.03;;
12577;SDS011;6354;51.026;8.968;2023-03-20T06:22:57;498.20;;;126.03;;
12577;SDS011;6354;51.026;8.968;2023-03-20T06:25:25;869.30;;;156.60;;
12577;SDS011;6354;51.026;8.968;2023-03-20T06:27:53;983.10;;;137.43;;
12577;SDS011;6354;51.026;8.968;2023-03-20T06:30:24;1893.07;;;336.37;;
12577;SDS011;6354;51.026;8.968;2023-03-20T06:32:52;1278.77;;;234.83;;
12577;SDS011;6354;51.026;8.968;2023-03-20T06:35:20;1475.63;;;194.57;;
12577;SDS011;6354;51.026;8.968;2023-03-20T06:37:48;423.80;;;67.63;;
12577;SDS011;6354;51.026;8.968;2023-03-20T06:40:16;575.37;;;92.13;;
12577;SDS011;6354;51.026;8.968;2023-03-20T06:42:44;900.87;;;145.03;;
12577;SDS011;6354;51.026;8.968;2023-03-20T06:45:12;1062.30;;;218.30;;
12577;SDS011;6354;51.026;8.968;2023-03-20T06:47:42;626.97;;;112.60;;
12577;SDS011;6354;51.026;8.968;2023-03-20T06:50:10;584.50;;;85.63;;
12577;SDS011;6354;51.026;8.968;2023-03-20T06:52:38;128.53;;;36.20;;
12577;SDS011;6354;51.026;8.968;2023-03-20T06:55:07;225.40;;;69.90;;
12577;SDS011;6354;51.026;8.968;2023-03-20T06:57:35;1659.57;;;244.60;;
12577;SDS011;6354;51.026;8.968;2023-03-20T07:00:04;222.10;;;48.77;;
12577;SDS011;6354;51.026;8.968;2023-03-20T07:02:33;208.37;;;50.20;;
12577;SDS011;6354;51.026;8.968;2023-03-20T07:05:02;289.73;;;57.63;;
12577;SDS011;6354;51.026;8.968;2023-03-20T07:07:31;1233.27;;;228.10;;
12577;SDS011;6354;51.026;8.968;2023-03-20T07:09:59;1960.13;;;255.00;;
12577;SDS011;6354;51.026;8.968;2023-03-20T07:12:27;958.60;;;191.90;;
12577;SDS011;6354;51.026;8.968;2023-03-20T07:14:55;1999.90;;;345.23;;
12577;SDS011;6354;51.026;8.968;2023-03-20T07:17:23;1999.90;;;287.67;;
12577;SDS011;6354;51.026;8.968;2023-03-20T07:19:51;1065.33;;;196.27;;
12577;SDS011;6354;51.026;8.968;2023-03-20T07:22:22;829.13;;;169.67;;
12577;SDS011;6354;51.026;8.968;2023-03-20T07:24:51;1130.07;;;239.97;;
12577;SDS011;6354;51.026;8.968;2023-03-20T07:27:19;540.57;;;104.97;;
12577;SDS011;6354;51.026;8.968;2023-03-20T07:29:47;1999.90;;;389.83;;
12577;SDS011;6354;51.026;8.968;2023-03-20T07:32:15;732.73;;;144.43;;
12577;SDS011;6354;51.026;8.968;2023-03-20T07:34:43;953.30;;;249.77;;
12577;SDS011;6354;51.026;8.968;2023-03-20T07:37:12;973.57;;;257.57;;
12577;SDS011;6354;51.026;8.968;2023-03-20T07:39:42;1609.27;;;259.40;;
12577;SDS011;6354;51.026;8.968;2023-03-20T07:42:10;1149.60;;;223.33;;
12577;SDS011;6354;51.026;8.968;2023-03-20T07:44:39;1170.93;;;234.93;;
12577;SDS011;6354;51.026;8.968;2023-03-20T07:47:07;936.77;;;174.87;;
12577;SDS011;6354;51.026;8.968;2023-03-20T07:49:35;1244.67;;;264.93;;
12577;SDS011;6354;51.026;8.968;2023-03-20T07:52:03;505.40;;;94.87;;
12577;SDS011;6354;51.026;8.968;2023-03-20T07:54:31;1999.90;;;448.93;;
12577;SDS011;6354;51.026;8.968;2023-03-20T07:57:01;639.43;;;121.40;;
12577;SDS011;6354;51.026;8.968;2023-03-20T07:59:30;987.73;;;266.97;;
12577;SDS011;6354;51.026;8.968;2023-03-20T08:01:58;1999.90;;;479.93;;
12577;SDS011;6354;51.026;8.968;2023-03-20T08:04:27;1999.90;;;698.17;;
12577;SDS011;6354;51.026;8.968;2023-03-20T08:06:55;626.57;;;129.57;;
12577;SDS011;6354;51.026;8.968;2023-03-20T08:09:23;1999.90;;;402.00;;
12577;SDS011;6354;51.026;8.968;2023-03-20T08:11:51;1665.67;;;336.33;;
12577;SDS011;6354;51.026;8.968;2023-03-20T08:14:21;1997.67;;;400.63;;
12577;SDS011;6354;51.026;8.968;2023-03-20T08:16:49;1999.90;;;415.57;;
12577;SDS011;6354;51.026;8.968;2023-03-20T08:19:37;1187.47;;;257.47;;
12577;SDS011;6354;51.026;8.968;2023-03-20T08:22:05;1999.90;;;353.80;;
12577;SDS011;6354;51.026;8.968;2023-03-20T08:24:33;1962.50;;;403.43;;
12577;SDS011;6354;51.026;8.968;2023-03-20T08:27:01;1693.37;;;253.47;;
12577;SDS011;6354;51.026;8.968;2023-03-20T08:29:31;1063.43;;;151.27;;
12577;SDS011;6354;51.026;8.968;2023-03-20T08:31:59;1999.90;;;578.17;;
12577;SDS011;6354;51.026;8.968;2023-03-20T08:34:28;1999.90;;;444.17;;
12577;SDS011;6354;51.026;8.968;2023-03-20T08:36:57;1999.90;;;317.87;;
12577;SDS011;6354;51.026;8.968;2023-03-20T08:39:25;1996.77;;;386.77;;
12577;SDS011;6354;51.026;8.968;2023-03-20T08:41:53;1999.90;;;474.73;;
12577;SDS011;6354;51.026;8.968;2023-03-20T08:44:21;1999.90;;;405.23;;
12577;SDS011;6354;51.026;8.968;2023-03-20T08:46:50;1889.63;;;407.17;;
12577;SDS011;6354;51.026;8.968;2023-03-20T08:49:20;1999.90;;;757.60;;
12577;SDS011;6354;51.026;8.968;2023-03-20T08:51:48;1999.90;;;451.27;;
12577;SDS011;6354;51.026;8.968;2023-03-20T08:54:16;1999.90;;;440.07;;
12577;SDS011;6354;51.026;8.968;2023-03-20T08:56:44;1988.17;;;387.90;;
12577;SDS011;6354;51.026;8.968;2023-03-20T08:59:12;1999.90;;;506.03;;
12577;SDS011;6354;51.026;8.968;2023-03-20T09:01:40;1999.90;;;549.50;;
12577;SDS011;6354;51.026;8.968;2023-03-20T09:04:17;1999.90;;;660.20;;
12577;SDS011;6354;51.026;8.968;2023-03-20T09:06:45;1999.90;;;752.97;;
12577;SDS011;6354;51.026;8.968;2023-03-20T09:09:13;1999.90;;;936.50;;
12577;SDS011;6354;51.026;8.968;2023-03-20T09:11:46;1999.90;;;767.03;;
12577;SDS011;6354;51.026;8.968;2023-03-20T09:14:14;1999.90;;;803.00;;
12577;SDS011;6354;51.026;8.968;2023-03-20T09:16:42;1999.90;;;699.27;;
12577;SDS011;6354;51.026;8.968;2023-03-20T09:19:10;1999.90;;;760.70;;
12577;SDS011;6354;51.026;8.968;2023-03-20T09:21:39;1999.90;;;687.00;;
12577;SDS011;6354;51.026;8.968;2023-03-20T09:24:07;1999.90;;;669.50;;
12577;SDS011;6354;51.026;8.968;2023-03-20T09:26:36;1999.90;;;501.53;;
12577;SDS011;6354;51.026;8.968;2023-03-20T09:29:05;1999.90;;;752.57;;
12577;SDS011;6354;51.026;8.968;2023-03-20T09:31:33;1999.90;;;920.80;;
12577;SDS011;6354;51.026;8.968;2023-03-20T09:34:01;1999.90;;;830.47;;
12577;SDS011;6354;51.026;8.968;2023-03-20T09:36:29;1999.90;;;602.83;;
12577;SDS011;6354;51.026;8.968;2023-03-20T09:38:59;1999.90;;;633.53;;
12577;SDS011;6354;51.026;8.968;2023-03-20T09:41:27;1999.90;;;625.40;;
12577;SDS011;6354;51.026;8.968;2023-03-20T09:44:24;1999.90;;;771.17;;
12577;SDS011;6354;51.026;8.968;2023-03-20T09:47:08;1999.90;;;588.93;;
12577;SDS011;6354;51.026;8.968;2023-03-20T09:49:48;1999.90;;;600.40;;
12577;SDS011;6354;51.026;8.968;2023-03-20T09:52:25;1999.90;;;693.20;;
12577;SDS011;6354;51.026;8.968;2023-03-20T09:54:58;1999.90;;;851.43;;
12577;SDS011;6354;51.026;8.968;2023-03-20T09:57:31;1999.90;;;637.07;;
12577;SDS011;6354;51.026;8.968;2023-03-20T10:00:05;1999.90;;;707.07;;
12577;SDS011;6354;51.026;8.968;2023-03-20T10:02:40;1999.90;;;717.50;;
12577;SDS011;6354;51.026;8.968;2023-03-20T10:05:20;1999.90;;;588.00;;
12577;SDS011;6354;51.026;8.968;2023-03-20T10:07:52;1999.90;;;949.70;;
12577;SDS011;6354;51.026;8.968;2023-03-20T10:10:26;1999.90;;;751.33;;
12577;SDS011;6354;51.026;8.968;2023-03-20T10:13:02;1999.90;;;937.27;;
12577;SDS011;6354;51.026;8.968;2023-03-20T10:15:43;1999.90;;;988.80;;
12577;SDS011;6354;51.026;8.968;2023-03-20T10:18:19;1999.90;;;792.20;;
12577;SDS011;6354;51.026;8.968;2023-03-20T10:20:53;1999.90;;;849.23;;
12577;SDS011;6354;51.026;8.968;2023-03-20T10:23:26;1999.90;;;888.73;;
12577;SDS011;6354;51.026;8.968;2023-03-20T10:26:02;1999.90;;;787.80;;
12577;SDS011;6354;51.026;8.968;2023-03-20T10:28:33;1999.90;;;924.77;;
12577;SDS011;6354;51.026;8.968;2023-03-20T10:31:12;1999.90;;;855.83;;
12577;SDS011;6354;51.026;8.968;2023-03-20T10:33:51;1999.90;;;999.90;;
12577;SDS011;6354;51.026;8.968;2023-03-20T10:36:35;1999.90;;;820.07;;
12577;SDS011;6354;51.026;8.968;2023-03-20T10:39:18;1999.90;;;787.23;;
12577;SDS011;6354;51.026;8.968;2023-03-20T10:42:03;1999.90;;;795.77;;
12577;SDS011;6354;51.026;8.968;2023-03-20T10:44:40;1999.90;;;684.20;;
12577;SDS011;6354;51.026;8.968;2023-03-20T10:47:15;1999.90;;;762.33;;
12577;SDS011;6354;51.026;8.968;2023-03-20T10:49:47;1999.90;;;951.73;;
12577;SDS011;6354;51.026;8.968;2023-03-20T10:52:21;1999.90;;;742.50;;
12577;SDS011;6354;51.026;8.968;2023-03-20T10:54:53;1999.90;;;872.80;;
12577;SDS011;6354;51.026;8.968;2023-03-20T10:57:26;1999.90;;;884.60;;
12577;SDS011;6354;51.026;8.968;2023-03-20T10:59:58;1999.90;;;764.80;;
12577;SDS011;6354;51.026;8.968;2023-03-20T11:02:27;1999.90;;;777.70;;
12577;SDS011;6354;51.026;8.968;2023-03-20T11:04:57;1999.90;;;718.83;;
12577;SDS011;6354;51.026;8.968;2023-03-20T11:07:27;1999.90;;;690.27;;
12577;SDS011;6354;51.026;8.968;2023-03-20T11:12:46;1999.90;;;611.97;;
12577;SDS011;6354;51.026;8.968;2023-03-20T11:15:19;1999.90;;;773.37;;
12577;SDS011;6354;51.026;8.968;2023-03-20T11:17:50;1999.90;;;647.87;;
12577;SDS011;6354;51.026;8.968;2023-03-20T11:20:19;1999.90;;;858.83;;
12577;SDS011;6354;51.026;8.968;2023-03-20T11:22:47;1999.90;;;827.97;;
12577;SDS011;6354;51.026;8.968;2023-03-20T11:25:22;1999.90;;;915.97;;
12577;SDS011;6354;51.026;8.968;2023-03-20T11:27:56;1999.90;;;882.60;;
12577;SDS011;6354;51.026;8.968;2023-03-20T11:30:24;1999.90;;;959.97;;
12577;SDS011;6354;51.026;8.968;2023-03-20T11:32:53;1999.90;;;845.83;;
12577;SDS011;6354;51.026;8.968;2023-03-20T11:35:28;1999.90;;;811.05;;
12577;SDS011;6354;51.026;8.968;2023-03-20T11:38:06;1999.90;;;791.83;;
12577;SDS011;6354;51.026;8.968;2023-03-20T11:40:39;1999.90;;;999.90;;
12577;SDS011;6354;51.026;8.968;2023-03-20T11:43:10;1999.90;;;927.65;;
12577;SDS011;6354;51.026;8.968;2023-03-20T11:45:40;1999.90;;;999.90;;
12577;SDS011;6354;51.026;8.968;2023-03-20T11:48:13;1999.90;;;999.90;;
12577;SDS011;6354;51.026;8.968;2023-03-20T11:50:47;1999.90;;;900.92;;
12577;SDS011;6354;51.026;8.968;2023-03-20T11:53:19;1999.90;;;915.55;;
12577;SDS011;6354;51.026;8.968;2023-03-20T11:56:01;1999.90;;;758.17;;
12577;SDS011;6354;51.026;8.968;2023-03-20T11:58:34;1999.90;;;999.90;;
12577;SDS011;6354;51.026;8.968;2023-03-20T12:01:06;1999.90;;;999.90;;
12577;SDS011;6354;51.026;8.968;2023-03-20T12:03:39;1999.90;;;991.78;;
12577;SDS011;6354;51.026;8.968;2023-03-20T12:06:14;1999.90;;;943.45;;
12577;SDS011;6354;51.026;8.968;2023-03-20T12:08:49;1999.90;;;919.97;;
12577;SDS011;6354;51.026;8.968;2023-03-20T12:11:24;1999.90;;;883.75;;
12577;SDS011;6354;51.026;8.968;2023-03-20T12:14:05;1999.90;;;997.42;;
12577;SDS011;6354;51.026;8.968;2023-03-20T12:16:39;1999.90;;;999.90;;
12577;SDS011;6354;51.026;8.968;2023-03-20T12:19:10;1999.90;;;999.90;;
12577;SDS011;6354;51.026;8.968;2023-03-20T12:21:43;1999.90;;;867.65;;
12577;SDS011;6354;51.026;8.968;2023-03-20T12:24:16;1999.90;;;927.65;;
12577;SDS011;6354;51.026;8.968;2023-03-20T12:26:55;1999.90;;;950.83;;
12577;SDS011;6354;51.026;8.968;2023-03-20T12:29:29;1999.90;;;989.47;;
12577;SDS011;6354;51.026;8.968;2023-03-20T12:32:04;1999.90;;;999.90;;
12577;SDS011;6354;51.026;8.968;2023-03-20T12:34:38;1999.90;;;999.90;;
12577;SDS011;6354;51.026;8.968;2023-03-20T12:37:12;1999.90;;;999.90;;
12577;SDS011;6354;51.026;8.968;2023-03-20T12:39:46;1999.90;;;963.72;;
12577;SDS011;6354;51.026;8.968;2023-03-20T12:42:20;1999.90;;;942.00;;
12577;SDS011;6354;51.026;8.968;2023-03-20T12:45:04;1999.90;;;999.90;;
12577;SDS011;6354;51.026;8.968;2023-03-20T12:47:41;1999.90;;;999.90;;
12577;SDS011;6354;51.026;8.968;2023-03-20T12:50:22;1999.90;;;999.90;;
12577;SDS011;6354;51.026;8.968;2023-03-20T12:53:01;1999.90;;;985.83;;
12577;SDS011;6354;51.026;8.968;2023-03-20T12:55:45;1999.90;;;999.90;;
12577;SDS011;6354;51.026;8.968;2023-03-20T12:58:27;1999.90;;;999.90;;
12577;SDS011;6354;51.026;8.968;2023-03-20T13:01:05;1999.90;;;999.90;;
12577;SDS011;6354;51.026;8.968;2023-03-20T13:03:41;1999.90;;;999.90;;
12577;SDS011;6354;51.026;8.968;2023-03-20T13:06:22;1999.90;;;999.90;;
12577;SDS011;6354;51.026;8.968;2023-03-20T13:09:05;1999.90;;;999.90;;
12577;SDS011;6354;51.026;8.968;2023-03-20T13:12:11;1999.90;;;999.90;;
12577;SDS011;6354;51.026;8.968;2023-03-20T13:14:51;1999.90;;;999.90;;
12577;SDS011;6354;51.026;8.968;2023-03-20T13:17:28;1999.90;;;999.90;;
12577;SDS011;6354;51.026;8.968;2023-03-20T13:20:15;1999.90;;;999.90;;
12577;SDS011;6354;51.026;8.968;2023-03-20T13:22:52;1999.90;;;999.90;;
12577;SDS011;6354;51.026;8.968;2023-03-20T13:28:20;1999.90;;;999.90;;
12577;SDS011;6354;51.026;8.968;2023-03-20T13:30:57;1999.90;;;999.90;;
12577;SDS011;6354;51.026;8.968;2023-03-20T13:33:36;1999.90;;;999.90;;
12577;SDS011;6354;51.026;8.968;2023-03-20T13:36:15;1999.90;;;999.90;;
12577;SDS011;6354;51.026;8.968;2023-03-20T13:38:52;1999.90;;;999.90;;
12577;SDS011;6354;51.026;8.968;2023-03-20T13:41:24;1999.90;;;999.90;;
12577;SDS011;6354;51.026;8.968;2023-03-20T13:43:55;1999.90;;;984.38;;
12577;SDS011;6354;51.026;8.968;2023-03-20T13:46:28;1999.90;;;999.90;;
12577;SDS011;6354;51.026;8.968;2023-03-20T13:49:03;1999.90;;;999.90;;
12577;SDS011;6354;51.026;8.968;2023-03-20T13:51:35;1999.90;;;999.90;;
12577;SDS011;6354;51.026;8.968;2023-03-20T13:54:14;1999.90;;;999.90;;
12577;SDS011;6354;51.026;8.968;2023-03-20T13:56:52;1999.90;;;999.90;;
12577;SDS011;6354;51.026;8.968;2023-03-20T13:59:33;1999.90;;;999.90;;
12577;SDS011;6354;51.026;8.968;2023-03-20T14:02:17;1999.90;;;999.90;;
12577;SDS011;6354;51.026;8.968;2023-03-20T14:04:58;1999.90;;;999.90;;
12577;SDS011;6354;51.026;8.968;2023-03-20T14:07:31;1999.90;;;999.90;;
12577;SDS011;6354;51.026;8.968;2023-03-20T14:13:05;1999.90;;;999.90;;
12577;SDS011;6354;51.026;8.968;2023-03-20T14:15:43;1999.90;;;999.90;;
12577;SDS011;6354;51.026;8.968;2023-03-20T14:18:16;1999.90;;;999.90;;
12577;SDS011;6354;51.026;8.968;2023-03-20T14:20:53;1999.90;;;999.90;;
12577;SDS011;6354;51.026;8.968;2023-03-20T14:26:18;1999.90;;;999.90;;
12577;SDS011;6354;51.026;8.968;2023-03-20T14:28:52;1999.90;;;999.90;;
12577;SDS011;6354;51.026;8.968;2023-03-20T14:31:25;1999.90;;;999.90;;
12577;SDS011;6354;51.026;8.968;2023-03-20T14:33:58;1999.90;;;999.90;;
12577;SDS011;6354;51.026;8.968;2023-03-20T14:36:49;1999.90;;;999.90;;
12577;SDS011;6354;51.026;8.968;2023-03-20T14:39:25;1999.90;;;999.90;;
12577;SDS011;6354;51.026;8.968;2023-03-20T14:42:15;1999.90;;;926.43;;
12577;SDS011;6354;51.026;8.968;2023-03-20T14:45:05;1999.90;;;999.90;;
12577;SDS011;6354;51.026;8.968;2023-03-20T14:47:58;1999.90;;;972.63;;
12577;SDS011;6354;51.026;8.968;2023-03-20T14:50:32;1999.90;;;999.90;;
12577;SDS011;6354;51.026;8.968;2023-03-20T14:53:10;1999.90;;;999.90;;
12577;SDS011;6354;51.026;8.968;2023-03-20T14:55:46;1999.90;;;999.90;;
12577;SDS011;6354;51.026;8.968;2023-03-20T15:01:17;1999.90;;;827.23;;